Time;durP1;ratioP1;P1;durP2;ratioP2;P2;SDS_P1;SDS_P2;PMS_P1;PMS_P2;Temp;Humidity;BMP_temperature;BMP_pressure;BME280_temperature;BME280_humidity;BME280_pressure;Samples;Min_cycle;Max_cycle;Signal;HPM_P1;HPM_P2
2022/11/14 00:00:29;;;;;;;37.53;34.30;;;;;;;21.72;40.10;96136.22;6170233;28;103047;-80
2022/11/14 00:03:33;;;;;;;39.30;35.80;;;;;;;21.66;40.19;96133.84;6171005;28;103582;-81
2022/11/14 00:06:36;;;;;;;40.57;36.90;;;;;;;21.68;39.83;96132.50;6171491;28;104348;-79
2022/11/14 00:09:41;;;;;;;41.10;37.50;;;;;;;21.71;39.81;96139.16;6163958;28;104532;-80
2022/11/14 00:12:45;;;;;;;39.93;36.23;;;;;;;21.74;40.19;96146.59;6170794;28;105461;-79
2022/11/14 00:15:49;;;;;;;39.33;35.80;;;;;;;21.73;39.90;96139.66;6169163;28;103512;-79
2022/11/14 00:18:52;;;;;;;39.77;36.17;;;;;;;21.72;39.80;96138.09;6169509;28;103226;-79
2022/11/14 00:21:56;;;;;;;40.23;36.43;;;;;;;21.70;39.81;96134.91;6163385;28;102621;-80
2022/11/14 00:25:00;;;;;;;39.10;35.53;;;;;;;21.71;40.26;96141.81;6169376;28;105958;-79
2022/11/14 00:28:04;;;;;;;39.57;36.27;;;;;;;21.70;39.94;96143.69;6169673;28;105064;-79
2022/11/14 00:31:07;;;;;;;39.50;35.80;;;;;;;21.72;39.58;96138.09;6165246;28;104195;-79
2022/11/14 00:34:11;;;;;;;40.63;36.97;;;;;;;21.71;39.97;96139.16;6165083;28;103105;-79
2022/11/14 00:37:14;;;;;;;39.70;36.30;;;;;;;21.69;39.86;96136.78;6168480;28;103364;-80
2022/11/14 00:40:19;;;;;;;40.50;37.00;;;;;;;21.63;40.04;96132.53;6169529;28;105068;-79
2022/11/14 00:43:22;;;;;;;39.80;36.30;;;;;;;21.63;39.67;96126.41;6162381;28;103376;-80
2022/11/14 00:46:26;;;;;;;39.20;35.80;;;;;;;21.59;39.82;96118.19;6168207;28;103133;-79
2022/11/14 00:49:29;;;;;;;40.73;37.03;;;;;;;21.68;40.11;96139.72;6168715;28;107233;-79
2022/11/14 00:52:32;;;;;;;39.70;36.23;;;;;;;21.69;39.92;96139.44;6166852;28;102691;-80
2022/11/14 00:55:36;;;;;;;38.23;35.00;;;;;;;21.67;39.94;96130.09;6162520;28;106649;-80
2022/11/14 00:58:39;;;;;;;39.30;35.83;;;;;;;21.66;39.99;96126.63;6168351;28;104160;-79
2022/11/14 01:01:42;;;;;;;40.77;37.17;;;;;;;21.65;40.12;96129.59;6157389;28;103548;-78
2022/11/14 01:04:46;;;;;;;38.20;35.00;;;;;;;21.64;39.78;96128.78;6164697;28;103537;-79
2022/11/14 01:07:49;;;;;;;39.70;36.20;;;;;;;21.66;39.72;96126.63;6165059;28;105122;-80
2022/11/14 01:10:54;;;;;;;40.23;36.70;;;;;;;21.65;39.63;96127.72;6167975;28;104235;-79
2022/11/14 01:13:57;;;;;;;40.23;36.70;;;;;;;21.66;39.56;96126.63;6168742;28;103400;-79
2022/11/14 01:17:00;;;;;;;38.90;35.50;;;;;;;21.67;39.46;96130.09;6161159;28;103031;-79
2022/11/14 01:20:04;;;;;;;40.33;36.87;;;;;;;21.61;39.69;96116.03;6168103;28;103845;-79
2022/11/14 01:23:08;;;;;;;38.90;35.43;;;;;;;21.61;39.47;96113.38;6166655;28;103197;-80
2022/11/14 01:26:14;;;;;;;38.90;35.60;;;;;;;21.64;39.51;96109.34;6168128;28;104505;-79
2022/11/14 01:29:17;;;;;;;40.57;37.20;;;;;;;21.64;39.61;96109.34;6162846;28;103761;-79
2022/11/14 01:32:20;;;;;;;40.17;36.77;;;;;;;21.64;39.33;96098.69;6169122;28;103043;-79
2022/11/14 01:35:23;;;;;;;39.30;35.97;;;;;;;21.61;39.65;96100.03;6167208;28;106257;-79
2022/11/14 01:38:27;;;;;;;38.60;35.33;;;;;;;21.60;39.82;96095.78;6166706;28;103069;-79
2022/11/14 01:41:32;;;;;;;38.47;35.17;;;;;;;21.62;39.58;96095.50;6144308;28;103511;-79
2022/11/14 01:44:45;;;;;;;37.97;34.67;;;;;;;21.59;39.34;96080.09;6168618;28;107614;-79
2022/11/14 01:47:48;;;;;;;37.73;34.50;;;;;;;21.61;39.51;96086.72;6168781;28;105098;-79
2022/11/14 01:51:00;;;;;;;36.13;33.13;;;;;;;21.58;39.76;96092.63;6166266;28;104341;-80
2022/11/14 01:54:07;;;;;;;37.53;34.30;;;;;;;21.55;39.47;96076.41;6190566;28;103179;-80
2022/11/14 01:57:15;;;;;;;36.20;33.17;;;;;;;21.56;39.53;96080.66;6181803;28;103173;-80
2022/11/14 02:00:18;;;;;;;35.60;32.60;;;;;;;21.60;39.80;96076.34;6166989;28;103186;-80
2022/11/14 02:03:21;;;;;;;35.30;32.40;;;;;;;21.57;39.99;96071.59;6161937;28;104921;-81
2022/11/14 02:06:27;;;;;;;35.10;32.13;;;;;;;21.60;39.28;96065.69;6168093;28;102931;-80
2022/11/14 02:09:38;;;;;;;35.00;32.00;;;;;;;21.59;39.57;96070.22;6168802;28;105380;-80
2022/11/14 02:12:44;;;;;;;34.20;31.20;;;;;;;21.61;39.20;96072.63;6167170;28;103700;-80
2022/11/14 02:15:47;;;;;;;33.80;30.80;;;;;;;21.61;39.32;96070.75;6139006;28;103348;-80
2022/11/14 02:18:50;;;;;;;32.07;29.37;;;;;;;21.62;39.32;96076.88;6169944;28;103259;-80
2022/11/14 02:21:55;;;;;;;32.70;30.00;;;;;;;21.62;39.67;96074.22;6172118;28;103089;-80
2022/11/14 02:24:58;;;;;;;32.13;29.50;;;;;;;21.62;39.14;96071.53;6166291;28;104370;-81
2022/11/14 02:28:03;;;;;;;33.23;30.37;;;;;;;21.61;39.53;96083.28;6171508;28;103294;-80
2022/11/14 02:31:06;;;;;;;31.87;29.07;;;;;;;21.61;39.42;96081.41;6146912;28;102641;-80
2022/11/14 02:34:09;;;;;;;31.13;28.53;;;;;;;21.59;39.19;96074.75;6147860;28;103409;-80
2022/11/14 02:37:14;;;;;;;31.33;28.70;;;;;;;21.57;39.22;96077.72;6140324;28;104115;-80
2022/11/14 02:40:17;;;;;;;31.50;28.73;;;;;;;21.52;39.51;96065.22;6156860;28;103402;-80
2022/11/14 02:43:21;;;;;;;32.30;29.50;;;;;;;21.56;39.09;96075.31;6168553;28;106255;-80
2022/11/14 02:46:24;;;;;;;30.80;28.10;;;;;;;21.53;39.42;96066.03;6172655;28;103166;-83
2022/11/14 02:49:27;;;;;;;30.23;27.60;;;;;;;21.52;38.97;96081.22;6167931;28;106788;-82
2022/11/14 02:52:32;;;;;;;29.90;27.30;;;;;;;21.54;38.67;96074.81;6172408;28;104222;-83
2022/11/14 02:55:35;;;;;;;28.67;26.30;;;;;;;21.55;39.12;96071.88;6174319;28;103212;-81
2022/11/14 02:58:38;;;;;;;28.13;25.80;;;;;;;21.58;38.75;96067.84;6171284;28;102851;-82
2022/11/14 03:01:41;;;;;;;28.57;26.13;;;;;;;21.56;38.46;96068.13;6169114;28;107989;-82
2022/11/14 03:04:45;;;;;;;27.73;25.40;;;;;;;21.56;38.37;96062.00;6172269;28;103149;-82
2022/11/14 03:07:53;;;;;;;29.10;26.63;;;;;;;21.57;38.52;96061.72;6172345;28;104312;-83
2022/11/14 03:10:56;;;;;;;28.27;25.97;;;;;;;21.57;38.43;96072.38;6165914;28;103046;-82
2022/11/14 03:13:59;;;;;;;27.80;25.40;;;;;;;21.56;38.61;96070.78;6172348;28;103652;-83
2022/11/14 03:17:03;;;;;;;28.17;25.70;;;;;;;21.49;38.25;96052.44;6171950;28;103095;-82
2022/11/14 03:20:07;;;;;;;26.87;24.57;;;;;;;21.54;38.60;96061.50;6171332;28;103325;-82
2022/11/14 03:23:12;;;;;;;26.93;24.60;;;;;;;21.56;38.84;96064.66;6164482;28;103698;-82
2022/11/14 03:26:16;;;;;;;25.50;23.40;;;;;;;21.56;38.41;96070.78;6180000;28;104969;-82
2022/11/14 03:29:19;;;;;;;26.97;24.67;;;;;;;21.56;38.88;96065.47;6178948;28;103350;-82
2022/11/14 03:32:23;;;;;;;26.13;23.93;;;;;;;21.56;38.30;96064.66;6151103;28;105122;-81
2022/11/14 03:35:26;;;;;;;24.40;22.30;;;;;;;21.54;38.57;96061.50;6166687;28;102909;-82
2022/11/14 03:38:31;;;;;;;24.83;22.73;;;;;;;21.51;38.71;96068.16;6158508;28;106551;-82
2022/11/14 03:41:34;;;;;;;24.80;22.70;;;;;;;21.55;38.38;96063.88;6171357;28;104144;-82
2022/11/14 03:44:37;;;;;;;25.93;23.27;;;;;;;21.51;38.25;96060.19;6165234;28;105205;-82
2022/11/14 03:47:40;;;;;;;24.13;22.03;;;;;;;21.54;38.20;96054.28;6172386;28;102691;-81
2022/11/14 03:50:43;;;;;;;24.17;22.17;;;;;;;21.53;38.33;96060.69;6172297;28;103572;-82
2022/11/14 03:53:48;;;;;;;23.30;21.30;;;;;;;21.53;38.18;96066.03;6171809;28;103205;-82
2022/11/14 03:56:51;;;;;;;23.17;21.20;;;;;;;21.53;38.24;96063.34;6164458;28;104283;-82
2022/11/14 03:59:54;;;;;;;23.30;21.37;;;;;;;21.51;38.49;96052.19;6170806;28;104260;-82
2022/11/14 04:02:58;;;;;;;22.80;20.90;;;;;;;21.51;38.51;96058.31;6170574;28;103184;-80
2022/11/14 04:06:02;;;;;;;22.40;20.57;;;;;;;21.55;38.45;96061.22;6172036;28;104393;-82
2022/11/14 04:09:06;;;;;;;22.77;20.87;;;;;;;21.55;38.78;96057.75;6165569;28;104422;-83
2022/11/14 04:12:09;;;;;;;21.70;19.80;;;;;;;21.57;38.67;96059.06;6171858;28;104014;-82
2022/11/14 04:15:18;;;;;;;21.77;19.87;;;;;;;21.56;38.76;96054.81;6163302;28;104954;-82
2022/11/14 04:18:21;;;;;;;21.23;19.40;;;;;;;21.57;38.82;96044.94;6169198;28;105187;-83
2022/11/14 04:21:24;;;;;;;21.50;19.70;;;;;;;21.61;39.10;96056.63;6169736;28;104480;-87
2022/11/14 04:24:29;;;;;;;19.53;17.93;;;;;;;21.66;39.43;96054.72;6174828;28;104351;-86
2022/11/14 04:27:32;;;;;;;19.93;18.17;;;;;;;21.67;39.43;96050.19;6173745;28;104306;-86
2022/11/14 04:30:35;;;;;;;20.70;18.90;;;;;;;21.71;39.76;96045.91;6168584;28;103200;-86
2022/11/14 04:33:38;;;;;;;20.53;18.80;;;;;;;21.62;39.69;96040.38;6174556;28;103978;-85
2022/11/14 04:36:41;;;;;;;20.17;18.17;;;;;;;21.51;39.70;96031.69;6174645;28;105321;-86
2022/11/14 04:39:46;;;;;;;19.27;17.67;;;;;;;21.61;39.81;96049.44;6174442;28;106259;-85
2022/11/14 04:42:49;;;;;;;19.50;17.80;;;;;;;21.58;39.70;96041.22;6170206;28;106199;-83
2022/11/14 04:45:52;;;;;;;19.13;17.23;;;;;;;21.55;39.25;96044.44;6173290;28;105291;-86
2022/11/14 04:48:55;;;;;;;19.23;17.63;;;;;;;21.54;39.68;96043.63;6174921;28;103515;-86
2022/11/14 04:51:59;;;;;;;20.10;18.20;;;;;;;21.48;39.05;96042.06;6174730;28;104534;-86
2022/11/14 04:55:03;;;;;;;22.10;20.00;;;;;;;21.54;39.65;96040.19;6166332;28;106506;-82
2022/11/14 04:58:07;;;;;;;21.37;19.37;;;;;;;21.54;39.41;96042.84;6171475;28;103773;-86
2022/11/14 05:01:11;;;;;;;21.10;19.10;;;;;;;21.58;39.34;96036.69;6175444;28;103455;-86
2022/11/14 05:04:15;;;;;;;21.57;19.53;;;;;;;21.63;39.46;96041.16;6163819;28;103284;-86
2022/11/14 05:07:18;;;;;;;21.30;19.37;;;;;;;21.64;39.92;96046.22;6171918;28;104722;-84
2022/11/14 05:10:22;;;;;;;21.67;19.57;;;;;;;21.74;39.90;96050.69;6174929;28;105206;-84
2022/11/14 05:13:26;;;;;;;20.17;18.27;;;;;;;21.76;40.23;96046.66;6191379;28;104355;-83
2022/11/14 05:16:29;;;;;;;20.93;18.40;;;;;;;21.75;40.08;96046.94;6163400;28;103881;-83
2022/11/14 05:19:32;;;;;;;20.67;18.67;;;;;;;21.77;39.67;96050.91;6171155;28;104565;-83
2022/11/14 05:22:35;;;;;;;20.43;18.33;;;;;;;21.68;39.82;96057.94;6172863;28;102573;-86
2022/11/14 05:25:40;;;;;;;20.87;18.67;;;;;;;21.52;39.52;96040.47;6173872;28;102745;-86
2022/11/14 05:28:43;;;;;;;18.87;17.10;;;;;;;21.62;39.57;96064.34;6168294;28;106066;-87
2022/11/14 05:31:46;;;;;;;18.03;16.23;;;;;;;21.57;39.42;96066.25;6174594;28;104209;-87
2022/11/14 05:34:49;;;;;;;18.30;16.50;;;;;;;21.46;39.62;96045.00;6174679;28;103391;-86
2022/11/14 05:37:53;;;;;;;19.37;17.33;;;;;;;21.58;39.03;96062.53;6175192;28;105104;-85
2022/11/14 05:41:07;;;;;;;18.60;16.90;;;;;;;21.57;38.98;96059.06;6169582;28;104695;-86
2022/11/14 05:44:11;;;;;;;19.40;17.17;;;;;;;21.48;38.81;96052.72;6173088;28;103172;-88
2022/11/14 05:47:14;;;;;;;17.87;16.20;;;;;;;21.51;39.07;96060.97;6172006;28;104759;-87
2022/11/14 05:50:17;;;;;;;17.90;16.10;;;;;;;21.54;38.70;96066.81;6166836;28;105970;-88
2022/11/14 05:53:20;;;;;;;17.73;16.03;;;;;;;21.56;38.65;96068.13;6172161;28;102757;-88
2022/11/14 05:56:24;;;;;;;16.50;15.10;;;;;;;21.55;39.04;96071.06;6172133;28;105173;-86
2022/11/14 05:59:28;;;;;;;17.03;15.40;;;;;;;21.54;38.74;96066.81;6170679;28;103650;-86
2022/11/14 06:02:31;;;;;;;16.27;14.77;;;;;;;21.56;38.62;96067.34;6163526;28;104106;-86
2022/11/14 06:05:35;;;;;;;15.13;13.83;;;;;;;21.52;38.69;96070.56;6171474;28;106448;-85
2022/11/14 06:08:38;;;;;;;15.60;14.13;;;;;;;21.54;38.33;96072.94;6171371;28;102581;-86
2022/11/14 06:11:43;;;;;;;15.07;13.77;;;;;;;21.43;38.34;96061.53;6171668;28;105328;-86
2022/11/14 06:14:46;;;;;;;15.17;13.87;;;;;;;21.53;38.37;96076.69;6163204;28;104959;-86
2022/11/14 06:17:53;;;;;;;15.37;13.97;;;;;;;21.54;38.48;96080.13;6170466;28;103321;-85
2022/11/14 06:21:00;;;;;;;13.87;12.70;;;;;;;21.48;38.43;96071.34;6170943;28;104691;-86
2022/11/14 06:24:03;;;;;;;15.20;13.80;;;;;;;21.48;38.50;96077.47;6165279;28;104553;-85
2022/11/14 06:27:07;;;;;;;15.40;14.10;;;;;;;21.52;38.07;96086.53;6170018;28;102886;-88
2022/11/14 06:30:12;;;;;;;14.97;13.67;;;;;;;21.54;38.04;96086.25;6170905;28;107315;-86
2022/11/14 06:33:15;;;;;;;13.77;12.67;;;;;;;21.55;37.97;96074.53;6171452;28;103449;-86
2022/11/14 06:36:18;;;;;;;14.20;13.00;;;;;;;21.49;37.99;96076.41;6163292;28;106492;-89
2022/11/14 06:39:21;;;;;;;14.00;12.90;;;;;;;21.52;37.74;96080.41;6173491;28;104714;-90
2022/11/14 06:42:26;;;;;;;13.80;12.70;;;;;;;21.52;37.82;96080.41;6172741;28;106188;-89
2022/11/14 06:45:29;;;;;;;13.93;12.73;;;;;;;21.45;37.96;96064.72;6174325;28;103975;-93
2022/11/14 06:48:33;;;;;;;13.60;12.50;;;;;;;21.51;37.71;96076.97;6164984;28;107343;-87
2022/11/14 06:51:36;;;;;;;14.40;13.10;;;;;;;21.49;37.47;96075.63;6171452;28;104589;-86
2022/11/14 06:54:39;;;;;;;13.70;12.60;;;;;;;21.45;37.65;96064.72;6171153;28;107184;-87
2022/11/14 06:57:43;;;;;;;14.00;12.60;;;;;;;21.48;37.77;96061.50;6167439;28;105340;-87
2022/11/14 07:00:46;;;;;;;14.53;13.23;;;;;;;21.52;37.64;96065.22;6166158;28;105212;-86
2022/11/14 07:03:50;;;;;;;12.77;11.77;;;;;;;21.54;37.59;96064.16;6173981;28;103491;-86
2022/11/14 07:06:53;;;;;;;13.37;12.27;;;;;;;21.55;37.40;96068.41;6176265;28;107760;-86
2022/11/14 07:09:57;;;;;;;13.33;12.20;;;;;;;21.54;37.59;96064.16;6168082;28;103171;-87
2022/11/14 07:13:02;;;;;;;13.27;12.17;;;;;;;21.56;37.18;96065.47;6176095;28;103605;-87
2022/11/14 07:16:05;;;;;;;13.60;12.40;;;;;;;21.44;37.43;96047.16;6176047;28;104182;-90
2022/11/14 07:19:09;;;;;;;12.00;11.00;;;;;;;21.56;37.54;96064.66;6175848;28;103739;-89
2022/11/14 07:22:12;;;;;;;13.20;12.10;;;;;;;21.61;37.61;96072.63;6167366;28;103276;-86
2022/11/14 07:25:15;;;;;;;12.37;11.27;;;;;;;21.64;37.57;96069.38;6174599;28;105473;-87
2022/11/14 07:28:20;;;;;;;12.17;10.73;;;;;;;21.65;37.85;96055.00;6175699;28;104352;-88
2022/11/14 07:31:23;;;;;;;12.17;11.07;;;;;;;21.61;37.95;96046.78;6175637;28;102722;-87
2022/11/14 07:34:26;;;;;;;11.43;10.53;;;;;;;21.67;37.55;96058.19;6168994;28;103856;-87
2022/11/14 07:37:30;;;;;;;11.47;10.47;;;;;;;21.68;37.79;96062.47;6176123;28;106906;-87
2022/11/14 07:40:33;;;;;;;13.37;12.27;;;;;;;21.61;38.26;96051.31;6175115;28;104145;-86
2022/11/14 07:43:38;;;;;;;11.30;10.37;;;;;;;21.72;37.87;96053.63;6169970;28;106374;-87
2022/11/14 07:46:41;;;;;;;11.77;10.87;;;;;;;21.81;37.67;96051.16;6174606;28;103639;-88
2022/11/14 07:49:44;;;;;;;11.30;10.30;;;;;;;21.63;37.70;96039.28;6174857;28;106331;-87
2022/11/14 07:52:50;;;;;;;12.30;11.20;;;;;;;21.74;37.90;96056.00;6173556;28;102480;-86
2022/11/14 07:55:54;;;;;;;11.60;10.70;;;;;;;21.65;38.26;96052.34;6164093;28;105001;-89
2022/11/14 07:58:58;;;;;;;11.23;10.33;;;;;;;21.64;38.21;96059.53;6174399;28;103029;-85
2022/11/14 08:02:01;;;;;;;11.60;10.70;;;;;;;21.63;37.80;96054.47;6172312;28;102945;-86
2022/11/14 08:05:05;;;;;;;11.90;10.90;;;;;;;21.59;38.00;96046.25;6174539;28;106721;-84
2022/11/14 08:08:08;;;;;;;11.30;10.40;;;;;;;21.49;38.03;96031.13;6167299;28;103704;-84
2022/11/14 08:11:11;;;;;;;11.70;10.70;;;;;;;21.59;37.87;96048.91;6174408;28;103972;-85
2022/11/14 08:14:23;;;;;;;11.03;10.13;;;;;;;21.56;37.93;96046.03;6174318;28;103424;-86
2022/11/14 08:17:26;;;;;;;11.23;10.13;;;;;;;21.59;38.04;96042.81;6170416;28;105409;-84
2022/11/14 08:20:29;;;;;;;11.00;10.10;;;;;;;21.55;37.88;96039.91;6171493;28;106088;-83
2022/11/14 08:23:32;;;;;;;10.50;9.60;;;;;;;21.60;38.08;96041.72;6175262;28;103163;-84
2022/11/14 08:26:35;;;;;;;11.70;10.60;;;;;;;21.59;38.00;96051.59;6174960;28;104204;-84
2022/11/14 08:29:40;;;;;;;11.00;10.00;;;;;;;21.57;37.90;96045.75;6167700;28;103526;-83
2022/11/14 08:32:43;;;;;;;12.30;11.30;;;;;;;21.59;37.84;96042.81;6174145;28;103698;-83
2022/11/14 08:35:46;;;;;;;11.57;10.63;;;;;;;21.59;37.97;96046.25;6174337;28;103507;-84
2022/11/14 08:38:49;;;;;;;10.80;9.90;;;;;;;21.59;37.67;96037.47;6174101;28;105168;-84
2022/11/14 08:41:54;;;;;;;11.47;10.40;;;;;;;21.59;37.56;96040.13;6166496;28;103720;-83
2022/11/14 08:44:59;;;;;;;11.90;11.00;;;;;;;21.61;37.49;96045.97;6173792;28;104186;-83
2022/11/14 08:48:02;;;;;;;10.43;9.53;;;;;;;21.62;37.31;96047.56;6174526;28;106363;-85
2022/11/14 08:51:06;;;;;;;11.30;10.50;;;;;;;21.60;37.70;96039.84;6171511;28;102543;-83
2022/11/14 08:54:09;;;;;;;11.30;10.30;;;;;;;21.62;37.37;96037.72;6169830;28;103334;-83
2022/11/14 08:57:14;;;;;;;11.10;10.20;;;;;;;21.59;37.32;96027.63;6174425;28;106320;-83
2022/11/14 09:00:19;;;;;;;11.17;10.27;;;;;;;21.57;37.29;96023.66;6172264;28;103105;-79
2022/11/14 09:03:23;;;;;;;10.40;9.60;;;;;;;21.64;37.79;96014.25;6165534;28;106335;-83
2022/11/14 09:06:26;;;;;;;10.57;9.73;;;;;;;21.62;37.82;96015.59;6173273;28;103402;-81
2022/11/14 09:09:29;;;;;;;10.57;9.67;;;;;;;21.62;38.00;96010.28;6172179;28;104211;-83
2022/11/14 09:12:33;;;;;;;11.47;10.47;;;;;;;21.52;37.60;96006.63;6173282;28;104367;-83
2022/11/14 09:15:37;;;;;;;10.73;9.83;;;;;;;21.61;37.68;96014.81;6165262;28;106468;-85
2022/11/14 09:18:40;;;;;;;10.53;9.73;;;;;;;21.59;37.62;96002.84;6178131;28;102771;-87
2022/11/14 09:21:44;;;;;;;9.97;9.17;;;;;;;21.52;37.87;95981.88;6175753;28;106186;-87
2022/11/14 09:24:48;;;;;;;10.60;9.60;;;;;;;21.62;37.73;95992.44;6174431;28;103968;-86
2022/11/14 09:27:51;;;;;;;9.93;9.20;;;;;;;21.57;37.81;95989.81;6166504;28;103380;-87
2022/11/14 09:31:00;;;;;;;10.40;9.50;;;;;;;21.59;36.98;95979.69;6175349;28;102969;-89
2022/11/14 09:34:04;;;;;;;10.13;9.27;;;;;;;21.63;37.30;95986.03;6173961;28;103377;-86
2022/11/14 09:37:07;;;;;;;10.53;9.63;;;;;;;21.62;37.48;95983.63;6168943;28;103829;-81
2022/11/14 09:40:13;;;;;;;10.07;9.27;;;;;;;21.59;37.67;95987.66;6172600;28;103138;-83
2022/11/14 09:43:30;;;;;;;10.33;9.43;;;;;;;21.58;37.53;95977.28;6173030;28;104020;-84
2022/11/14 09:46:40;;;;;;;9.73;8.93;;;;;;;21.59;37.83;95971.69;6173188;28;107016;-85
2022/11/14 09:49:46;;;;;;;10.40;9.50;;;;;;;21.57;37.74;95971.16;6165296;28;103399;-87
2022/11/14 09:52:54;;;;;;;10.07;9.27;;;;;;;21.58;38.11;95971.97;6173978;28;102800;-83
2022/11/14 09:55:58;;;;;;;10.00;9.30;;;;;;;21.54;37.71;95962.94;6174935;28;102721;-85
2022/11/14 09:59:01;;;;;;;10.17;9.37;;;;;;;21.58;37.80;95966.63;6173348;28;102850;-85
2022/11/14 10:02:30;;;;;;;9.67;8.87;;;;;;;21.57;37.65;95960.50;6165154;28;106353;-83
2022/11/14 10:06:08;;;;;;;10.07;9.27;;;;;;;21.57;37.81;95959.72;6167598;28;102543;-83
2022/11/14 10:09:43;;;;;;;10.13;9.33;;;;;;;21.56;38.05;95950.94;6171188;28;105525;-83
2022/11/14 10:12:59;;;;;;;10.13;9.33;;;;;;;21.54;37.96;95944.31;6164589;28;103223;-83
2022/11/14 10:16:11;;;;;;;9.63;8.83;;;;;;;21.58;37.79;95945.34;6172053;28;105913;-85
2022/11/14 10:19:23;;;;;;;9.90;9.03;;;;;;;21.55;38.14;95937.91;6172023;28;105919;-83
2022/11/14 10:22:44;;;;;;;9.33;8.63;;;;;;;21.54;37.61;95931.00;6143980;28;104634;-84
2022/11/14 10:25:55;;;;;;;9.77;9.00;;;;;;;21.54;37.69;95921.13;6147191;28;103445;-84
2022/11/14 10:29:31;;;;;;;9.60;8.80;;;;;;;21.57;38.22;95919.78;6148871;28;108160;-85
2022/11/14 10:32:47;;;;;;;9.90;9.10;;;;;;;21.59;38.01;95915.75;6148850;28;103141;-83
2022/11/14 10:35:58;;;;;;;10.50;9.60;;;;;;;21.61;37.95;95908.28;6148734;28;107414;-85
2022/11/14 10:39:10;;;;;;;10.50;9.60;;;;;;;21.65;38.05;95895.19;6141691;28;106689;-85
2022/11/14 10:42:19;;;;;;;9.23;8.43;;;;;;;21.69;38.14;95889.03;6154180;28;104170;-84
2022/11/14 10:45:27;;;;;;;10.17;9.37;;;;;;;21.72;37.79;95893.00;6153630;28;103236;-85
2022/11/14 10:48:32;;;;;;;10.20;9.37;;;;;;;21.73;37.99;95890.03;6152750;28;103561;-84
2022/11/14 10:51:41;;;;;;;9.97;9.17;;;;;;;21.75;37.49;95877.22;6145319;28;103088;-85
2022/11/14 10:54:48;;;;;;;9.60;8.87;;;;;;;21.72;38.03;95877.00;6152443;28;104733;-82
2022/11/14 10:57:51;;;;;;;10.57;9.73;;;;;;;21.77;37.73;95874.28;6152009;28;106498;-83
2022/11/14 11:00:54;;;;;;;9.30;8.60;;;;;;;21.79;37.97;95874.78;6147482;28;102814;-83
2022/11/14 11:03:58;;;;;;;9.63;8.93;;;;;;;21.77;38.00;95868.97;6147954;28;105285;-83
2022/11/14 11:14:15;;;;;;;9.50;8.80;;;;;;;21.78;38.21;95859.88;6141477;28;106455;-82
2022/11/14 11:17:23;;;;;;;10.00;9.20;;;;;;;21.79;38.13;95856.13;6149197;28;106091;-81
2022/11/14 11:20:37;;;;;;;9.30;8.50;;;;;;;21.72;37.91;95853.03;6150631;28;104594;-81
2022/11/14 11:23:51;;;;;;;9.27;8.57;;;;;;;21.76;38.08;95862.84;6145852;28;103432;-82
2022/11/14 11:27:13;;;;;;;9.47;8.77;;;;;;;21.76;38.16;95854.03;6149556;28;103127;-81
2022/11/14 11:30:21;;;;;;;9.43;8.63;;;;;;;21.70;38.13;95840.00;6149529;28;107885;-81
2022/11/14 11:33:27;;;;;;;9.53;8.73;;;;;;;21.71;38.19;95844.25;6150952;28;102690;-81
2022/11/14 11:36:40;;;;;;;9.90;9.10;;;;;;;21.71;38.31;95838.94;6141317;28;104170;-83
2022/11/14 11:39:49;;;;;;;9.30;8.50;;;;;;;21.69;38.35;95841.09;6149592;28;102921;-83
2022/11/14 11:43:02;;;;;;;10.23;9.33;;;;;;;21.68;38.67;95841.38;6150854;28;103691;-82
2022/11/14 11:46:32;;;;;;;9.90;9.10;;;;;;;21.66;38.28;95840.81;6146155;28;103205;-84
2022/11/14 11:49:44;;;;;;;9.80;9.00;;;;;;;21.66;38.32;95835.50;6148347;28;106271;-83
2022/11/14 11:53:06;;;;;;;9.43;8.73;;;;;;;21.69;38.31;95830.44;6150118;28;103321;-83
2022/11/14 11:56:13;;;;;;;8.93;8.17;;;;;;;21.68;38.48;95823.50;6150150;28;103238;-84
2022/11/14 11:59:26;;;;;;;8.83;8.13;;;;;;;21.66;38.32;95817.66;6141987;28;104280;-82
2022/11/14 12:02:29;;;;;;;9.87;9.07;;;;;;;21.70;38.71;95821.34;6150414;28;105644;-83
2022/11/14 12:05:47;;;;;;;9.50;8.70;;;;;;;21.70;38.63;95804.56;6150907;28;107689;-82
2022/11/14 12:09:12;;;;;;;9.87;9.03;;;;;;;21.69;38.49;95806.44;6145949;28;103608;-83
2022/11/14 12:12:25;;;;;;;10.33;9.47;;;;;;;21.70;38.76;95810.69;6147490;28;105761;-82
2022/11/14 12:15:36;;;;;;;9.73;8.93;;;;;;;21.70;38.32;95804.56;6149642;28;106151;-85
2022/11/14 12:18:58;;;;;;;10.37;9.47;;;;;;;21.71;38.28;95804.28;6150288;28;105415;-84
2022/11/14 12:22:16;;;;;;;9.97;9.17;;;;;;;21.69;38.67;95793.13;6142978;28;103545;-85
2022/11/14 12:25:46;;;;;;;10.10;9.10;;;;;;;21.72;38.41;95791.75;6150616;28;104448;-83
2022/11/14 12:29:12;;;;;;;10.47;9.57;;;;;;;21.72;38.62;95786.44;6148512;28;106631;-83
2022/11/14 12:32:28;;;;;;;10.30;9.60;;;;;;;21.69;38.48;95777.16;6147648;28;103652;-82
2022/11/14 12:35:34;;;;;;;10.10;9.30;;;;;;;21.72;38.36;95784.56;6151786;28;106860;-84
2022/11/14 12:38:43;;;;;;;9.70;8.90;;;;;;;21.65;38.96;95770.00;6153949;28;103844;-85
2022/11/14 12:41:46;;;;;;;10.20;9.30;;;;;;;21.69;38.78;95776.34;6151846;28;103774;-84
2022/11/14 12:44:52;;;;;;;10.13;9.33;;;;;;;21.69;38.80;95771.03;6142727;28;105822;-84
2022/11/14 12:48:14;;;;;;;9.87;8.97;;;;;;;21.66;38.98;95766.25;6150450;28;103074;-82
2022/11/14 12:51:51;;;;;;;10.33;9.43;;;;;;;21.68;38.62;95769.44;6151516;28;103144;-82
2022/11/14 12:54:54;;;;;;;10.53;9.70;;;;;;;21.69;38.87;95771.03;6144307;28;107394;-84
2022/11/14 12:58:06;;;;;;;11.00;10.03;;;;;;;21.67;38.76;95759.84;6152110;28;102661;-83
2022/11/14 13:01:28;;;;;;;10.43;9.53;;;;;;;21.67;38.68;95759.84;6151691;28;107548;-84
2022/11/14 13:04:41;;;;;;;10.27;9.47;;;;;;;21.67;38.66;95759.84;6151191;28;106437;-83
2022/11/14 13:07:57;;;;;;;10.23;9.37;;;;;;;21.65;38.55;95754.00;6142848;28;102982;-84
2022/11/14 13:11:00;;;;;;;9.60;8.77;;;;;;;21.64;39.04;95749.75;6151357;28;104081;-84
2022/11/14 13:24:22;;;;;;;10.13;9.33;;;;;;;21.63;39.11;95750.84;6150283;28;106316;-83
2022/11/14 13:27:28;;;;;;;10.40;9.50;;;;;;;21.58;38.76;95735.72;6150399;28;106614;-83
2022/11/14 13:31:16;;;;;;;10.00;9.20;;;;;;;21.62;38.83;95731.41;6140352;28;104583;-82
2022/11/14 13:34:39;;;;;;;10.23;9.33;;;;;;;21.61;38.89;95732.47;6150965;28;102844;-86
2022/11/14 13:38:14;;;;;;;10.00;9.20;;;;;;;21.61;39.11;95731.69;6149998;28;106526;-84
2022/11/14 13:41:33;;;;;;;10.13;9.23;;;;;;;21.62;39.22;95733.28;6143603;28;105420;-83
2022/11/14 13:45:29;;;;;;;10.10;9.30;;;;;;;21.64;38.82;95726.59;6150127;28;102440;-84
2022/11/14 13:48:56;;;;;;;9.90;9.10;;;;;;;21.61;38.92;95729.03;6151143;28;105515;-84
2022/11/14 13:52:01;;;;;;;11.90;10.80;;;;;;;21.64;38.87;95726.59;6126367;28;106189;-86
2022/11/14 13:55:05;;;;;;;9.73;8.93;;;;;;;21.61;38.98;95723.69;6150232;28;102966;-83
2022/11/14 13:58:22;;;;;;;10.33;9.43;;;;;;;21.62;39.15;95728.75;6150172;28;103090;-86
2022/11/14 14:01:42;;;;;;;10.33;9.33;;;;;;;21.64;38.88;95720.47;6150312;28;103001;-83
2022/11/14 14:04:58;;;;;;;10.60;9.70;;;;;;;21.62;38.98;95719.97;6140664;28;108136;-84
2022/11/14 14:08:19;;;;;;;11.40;10.40;;;;;;;21.62;39.18;95723.41;6149727;28;102999;-83
2022/11/14 14:12:18;;;;;;;10.33;9.53;;;;;;;21.63;38.86;95719.66;6149955;28;103093;-84
2022/11/14 14:15:27;;;;;;;10.03;9.23;;;;;;;21.63;39.07;95709.03;6140753;28;105361;-83
2022/11/14 14:18:43;;;;;;;10.47;9.57;;;;;;;21.63;39.26;95710.88;6148881;28;106401;-83
2022/11/14 14:21:55;;;;;;;10.93;9.97;;;;;;;21.62;38.86;95710.09;6148733;28;105661;-84
2022/11/14 14:25:09;;;;;;;10.10;9.30;;;;;;;21.57;39.29;95712.03;6144212;28;102869;-83
2022/11/14 14:28:22;;;;;;;10.03;9.23;;;;;;;21.59;39.01;95710.69;6142713;28;103047;-83
2022/11/14 14:31:35;;;;;;;10.73;9.83;;;;;;;21.58;39.38;95708.31;6147876;28;104331;-85